sensor_id;sensor_type;location;lat;lon;timestamp;pressure;altitude;pressure_sealevel;temperature;humidity
8697;BME280;4385;48.848;8.924;2023-03-16T00:00:49;97731.81;;;17.11;100.00
8697;BME280;4385;48.848;8.924;2023-03-16T00:03:15;97732.69;;;17.10;100.00
8697;BME280;4385;48.848;8.924;2023-03-16T00:05:44;97730.16;;;17.06;100.00
8697;BME280;4385;48.848;8.924;2023-03-16T00:08:10;97732.69;;;17.06;100.00
8697;BME280;4385;48.848;8.924;2023-03-16T00:10:36;97731.00;;;17.05;100.00
8697;BME280;4385;48.848;8.924;2023-03-16T00:13:01;97733.56;;;17.04;100.00
8697;BME280;4385;48.848;8.924;2023-03-16T00:15:27;97732.75;;;17.03;100.00
8697;BME280;4385;48.848;8.924;2023-03-16T00:17:53;97727.66;;;17.02;100.00
8697;BME280;4385;48.848;8.924;2023-03-16T00:20:18;97729.38;;;17.00;100.00
8697;BME280;4385;48.848;8.924;2023-03-16T00:22:44;97735.34;;;16.99;100.00
8697;BME280;4385;48.848;8.924;2023-03-16T00:25:11;97726.03;;;16.94;100.00
8697;BME280;4385;48.848;8.924;2023-03-16T00:27:37;97728.59;;;16.94;100.00
8697;BME280;4385;48.848;8.924;2023-03-16T00:30:03;97733.69;;;16.93;100.00
8697;BME280;4385;48.848;8.924;2023-03-16T00:32:32;97731.16;;;16.93;100.00
8697;BME280;4385;48.848;8.924;2023-03-16T00:34:58;97734.53;;;16.93;100.00
8697;BME280;4385;48.848;8.924;2023-03-16T00:37:24;97739.66;;;16.92;100.00
8697;BME280;4385;48.848;8.924;2023-03-16T00:39:50;97734.56;;;16.92;100.00
8697;BME280;4385;48.848;8.924;2023-03-16T00:42:17;97733.72;;;16.91;100.00
8697;BME280;4385;48.848;8.924;2023-03-16T00:44:44;97735.44;;;16.91;100.00
8697;BME280;4385;48.848;8.924;2023-03-16T00:47:10;97740.53;;;16.91;100.00
8697;BME280;4385;48.848;8.924;2023-03-16T00:49:40;97733.72;;;16.91;100.00
8697;BME280;4385;48.848;8.924;2023-03-16T00:52:08;97732.88;;;16.91;100.00
8697;BME280;4385;48.848;8.924;2023-03-16T00:54:34;97729.47;;;16.92;100.00
8697;BME280;4385;48.848;8.924;2023-03-16T00:57:00;97721.81;;;16.93;100.00
8697;BME280;4385;48.848;8.924;2023-03-16T00:59:26;97721.81;;;16.93;100.00
8697;BME280;4385;48.848;8.924;2023-03-16T01:01:52;97721.84;;;16.92;100.00
8697;BME280;4385;48.848;8.924;2023-03-16T01:04:18;97722.72;;;16.91;100.00
8697;BME280;4385;48.848;8.924;2023-03-16T01:06:44;97719.31;;;16.89;100.00
8697;BME280;4385;48.848;8.924;2023-03-16T01:09:10;97714.25;;;16.89;100.00
8697;BME280;4385;48.848;8.924;2023-03-16T01:11:35;97721.03;;;16.87;100.00
8697;BME280;4385;48.848;8.924;2023-03-16T01:14:01;97718.53;;;16.83;100.00
8697;BME280;4385;48.848;8.924;2023-03-16T01:16:27;97726.19;;;16.80;100.00
8697;BME280;4385;48.848;8.924;2023-03-16T01:18:52;97722.00;;;16.78;100.00
8697;BME280;4385;48.848;8.924;2023-03-16T01:21:19;97717.78;;;16.75;100.00
8697;BME280;4385;48.848;8.924;2023-03-16T01:23:46;97705.91;;;16.74;100.00
8697;BME280;4385;48.848;8.924;2023-03-16T01:26:11;97714.41;;;16.73;100.00
8697;BME280;4385;48.848;8.924;2023-03-16T01:28:36;97719.50;;;16.73;100.00
8697;BME280;4385;48.848;8.924;2023-03-16T01:31:08;97715.25;;;16.75;100.00
8697;BME280;4385;48.848;8.924;2023-03-16T01:33:35;97706.75;;;16.75;100.00
8697;BME280;4385;48.848;8.924;2023-03-16T01:36:03;97707.63;;;16.75;100.00
8697;BME280;4385;48.848;8.924;2023-03-16T01:38:29;97708.44;;;16.76;100.00
8697;BME280;4385;48.848;8.924;2023-03-16T01:40:54;97699.97;;;16.77;100.00
8697;BME280;4385;48.848;8.924;2023-03-16T01:43:23;97700.78;;;16.77;100.00
8697;BME280;4385;48.848;8.924;2023-03-16T01:46:10;97699.09;;;16.78;100.00
8697;BME280;4385;48.848;8.924;2023-03-16T01:48:42;97702.50;;;16.78;100.00
8697;BME280;4385;48.848;8.924;2023-03-16T01:51:13;97691.47;;;16.78;100.00
8697;BME280;4385;48.848;8.924;2023-03-16T01:53:40;97691.47;;;16.78;100.00
8697;BME280;4385;48.848;8.924;2023-03-16T01:56:11;97693.16;;;16.77;100.00
8697;BME280;4385;48.848;8.924;2023-03-16T01:58:38;97687.22;;;16.78;100.00
8697;BME280;4385;48.848;8.924;2023-03-16T02:01:04;97683.81;;;16.78;100.00
8697;BME280;4385;48.848;8.924;2023-03-16T02:03:29;97685.53;;;16.77;100.00
8697;BME280;4385;48.848;8.924;2023-03-16T02:06:01;97681.28;;;16.78;100.00
8697;BME280;4385;48.848;8.924;2023-03-16T02:08:30;97682.97;;;16.77;100.00
8697;BME280;4385;48.848;8.924;2023-03-16T02:10:56;97675.38;;;16.74;100.00
8697;BME280;4385;48.848;8.924;2023-03-16T02:13:24;97677.09;;;16.74;100.00
8697;BME280;4385;48.848;8.924;2023-03-16T02:15:50;97682.22;;;16.72;100.00
8697;BME280;4385;48.848;8.924;2023-03-16T02:18:17;97683.91;;;16.70;100.00
8697;BME280;4385;48.848;8.924;2023-03-16T02:20:49;97678.88;;;16.67;100.00
8697;BME280;4385;48.848;8.924;2023-03-16T02:23:19;97689.91;;;16.66;100.00
8697;BME280;4385;48.848;8.924;2023-03-16T02:26:07;97689.91;;;16.66;100.00
8697;BME280;4385;48.848;8.924;2023-03-16T02:28:43;97688.22;;;16.63;100.00
8697;BME280;4385;48.848;8.924;2023-03-16T02:31:14;97685.66;;;16.65;100.00
8697;BME280;4385;48.848;8.924;2023-03-16T02:33:40;97684.00;;;16.64;100.00
8697;BME280;4385;48.848;8.924;2023-03-16T02:36:07;97673.81;;;16.64;100.00
8697;BME280;4385;48.848;8.924;2023-03-16T02:38:33;97676.38;;;16.62;100.00
8697;BME280;4385;48.848;8.924;2023-03-16T02:41:01;97672.13;;;16.64;100.00
8697;BME280;4385;48.848;8.924;2023-03-16T02:43:35;97670.41;;;16.65;100.00
8697;BME280;4385;48.848;8.924;2023-03-16T02:46:02;97656.84;;;16.66;100.00
8697;BME280;4385;48.848;8.924;2023-03-16T02:48:34;97656.84;;;16.66;100.00
8697;BME280;4385;48.848;8.924;2023-03-16T02:51:01;97649.19;;;16.66;100.00
8697;BME280;4385;48.848;8.924;2023-03-16T02:53:26;97648.34;;;16.67;100.00
8697;BME280;4385;48.848;8.924;2023-03-16T02:55:51;97653.41;;;16.67;100.00
8697;BME280;4385;48.848;8.924;2023-03-16T02:58:17;97663.59;;;16.67;100.00
8697;BME280;4385;48.848;8.924;2023-03-16T03:00:42;97655.97;;;16.65;100.00
8697;BME280;4385;48.848;8.924;2023-03-16T03:03:09;97649.25;;;16.63;100.00
8697;BME280;4385;48.848;8.924;2023-03-16T03:05:35;97654.34;;;16.61;100.00
8697;BME280;4385;48.848;8.924;2023-03-16T03:08:01;97650.13;;;16.58;100.00
8697;BME280;4385;48.848;8.924;2023-03-16T03:10:27;97645.91;;;16.56;100.00
8697;BME280;4385;48.848;8.924;2023-03-16T03:12:52;97656.13;;;16.53;100.00
8697;BME280;4385;48.848;8.924;2023-03-16T03:15:17;97658.69;;;16.51;100.00
8697;BME280;4385;48.848;8.924;2023-03-16T03:17:43;97655.31;;;16.49;100.00
8697;BME280;4385;48.848;8.924;2023-03-16T03:20:11;97646.88;;;16.47;100.00
8697;BME280;4385;48.848;8.924;2023-03-16T03:22:40;97638.41;;;16.45;100.00
8697;BME280;4385;48.848;8.924;2023-03-16T03:25:06;97640.97;;;16.45;100.00
8697;BME280;4385;48.848;8.924;2023-03-16T03:27:32;97636.72;;;16.45;100.00
8697;BME280;4385;48.848;8.924;2023-03-16T03:29:58;97626.53;;;16.47;100.00
8697;BME280;4385;48.848;8.924;2023-03-16T03:32:23;97635.84;;;16.48;100.00
8697;BME280;4385;48.848;8.924;2023-03-16T03:34:49;97623.13;;;16.48;100.00
8697;BME280;4385;48.848;8.924;2023-03-16T03:37:14;97626.50;;;16.50;100.00
8697;BME280;4385;48.848;8.924;2023-03-16T03:39:39;97635.78;;;16.51;100.00
8697;BME280;4385;48.848;8.924;2023-03-16T03:42:05;97632.38;;;16.52;100.00
8697;BME280;4385;48.848;8.924;2023-03-16T03:44:31;97633.22;;;16.54;100.00
8697;BME280;4385;48.848;8.924;2023-03-16T03:46:58;97628.97;;;16.55;100.00
8697;BME280;4385;48.848;8.924;2023-03-16T03:49:24;97623.91;;;16.55;100.00
8697;BME280;4385;48.848;8.924;2023-03-16T03:51:50;97619.63;;;16.55;100.00
8697;BME280;4385;48.848;8.924;2023-03-16T03:54:15;97624.72;;;16.55;100.00
8697;BME280;4385;48.848;8.924;2023-03-16T03:56:41;97625.56;;;16.56;100.00
8697;BME280;4385;48.848;8.924;2023-03-16T03:59:06;97615.41;;;16.54;100.00
8697;BME280;4385;48.848;8.924;2023-03-16T04:01:31;97616.28;;;16.53;100.00
8697;BME280;4385;48.848;8.924;2023-03-16T04:03:57;97628.16;;;16.51;100.00
8697;BME280;4385;48.848;8.924;2023-03-16T04:06:22;97629.03;;;16.50;100.00
8697;BME280;4385;48.848;8.924;2023-03-16T04:08:47;97616.34;;;16.47;100.00
8697;BME280;4385;48.848;8.924;2023-03-16T04:11:13;97618.91;;;16.45;100.00
8697;BME280;4385;48.848;8.924;2023-03-16T04:13:38;97624.03;;;16.42;100.00
8697;BME280;4385;48.848;8.924;2023-03-16T04:16:04;97617.25;;;16.40;100.00
8697;BME280;4385;48.848;8.924;2023-03-16T04:18:30;97611.38;;;16.38;100.00
8697;BME280;4385;48.848;8.924;2023-03-16T04:21:05;97616.47;;;16.38;100.00
8697;BME280;4385;48.848;8.924;2023-03-16T04:23:32;97617.31;;;16.37;100.00
8697;BME280;4385;48.848;8.924;2023-03-16T04:25:58;97621.53;;;16.38;100.00
8697;BME280;4385;48.848;8.924;2023-03-16T04:28:24;97618.13;;;16.39;100.00
8697;BME280;4385;48.848;8.924;2023-03-16T04:30:50;97616.44;;;16.41;100.00
8697;BME280;4385;48.848;8.924;2023-03-16T04:33:19;97615.56;;;16.42;100.00
8697;BME280;4385;48.848;8.924;2023-03-16T04:35:44;97613.00;;;16.42;100.00
8697;BME280;4385;48.848;8.924;2023-03-16T04:38:10;97609.59;;;16.43;100.00
8697;BME280;4385;48.848;8.924;2023-03-16T04:40:36;97607.88;;;16.45;100.00
8697;BME280;4385;48.848;8.924;2023-03-16T04:43:02;97614.66;;;16.46;100.00
8697;BME280;4385;48.848;8.924;2023-03-16T04:45:27;97616.38;;;16.45;100.00
8697;BME280;4385;48.848;8.924;2023-03-16T04:47:53;97612.09;;;16.48;100.00
8697;BME280;4385;48.848;8.924;2023-03-16T04:50:18;97603.63;;;16.47;100.00
8697;BME280;4385;48.848;8.924;2023-03-16T04:52:44;97604.44;;;16.49;100.00
8697;BME280;4385;48.848;8.924;2023-03-16T04:55:09;97605.28;;;16.50;100.00
8697;BME280;4385;48.848;8.924;2023-03-16T04:57:34;97607.84;;;16.50;100.00
8697;BME280;4385;48.848;8.924;2023-03-16T04:59:59;97601.91;;;16.49;100.00
8697;BME280;4385;48.848;8.924;2023-03-16T05:02:25;97607.84;;;16.48;100.00
8697;BME280;4385;48.848;8.924;2023-03-16T05:04:50;97604.47;;;16.48;100.00
8697;BME280;4385;48.848;8.924;2023-03-16T05:07:15;97602.81;;;16.45;100.00
8697;BME280;4385;48.848;8.924;2023-03-16T05:09:41;97597.75;;;16.42;100.00
8697;BME280;4385;48.848;8.924;2023-03-16T05:12:06;97600.34;;;16.39;100.00
8697;BME280;4385;48.848;8.924;2023-03-16T05:14:32;97602.06;;;16.35;100.00
8697;BME280;4385;48.848;8.924;2023-03-16T05:17:00;97601.25;;;16.33;100.00
8697;BME280;4385;48.848;8.924;2023-03-16T05:19:28;97597.00;;;16.32;100.00
8697;BME280;4385;48.848;8.924;2023-03-16T05:21:54;97595.31;;;16.32;100.00
8697;BME280;4385;48.848;8.924;2023-03-16T05:24:21;97592.78;;;16.32;100.00
8697;BME280;4385;48.848;8.924;2023-03-16T05:26:47;97597.88;;;16.32;100.00
8697;BME280;4385;48.848;8.924;2023-03-16T05:29:12;97602.91;;;16.36;100.00
8697;BME280;4385;48.848;8.924;2023-03-16T05:31:38;97605.44;;;16.37;100.00
8697;BME280;4385;48.848;8.924;2023-03-16T05:34:03;97600.34;;;16.39;100.00
8697;BME280;4385;48.848;8.924;2023-03-16T05:36:28;97599.47;;;16.40;100.00
8697;BME280;4385;48.848;8.924;2023-03-16T05:38:53;97591.81;;;16.41;100.00
8697;BME280;4385;48.848;8.924;2023-03-16T05:41:19;97592.63;;;16.45;100.00
8697;BME280;4385;48.848;8.924;2023-03-16T05:43:46;97593.47;;;16.45;100.00
8697;BME280;4385;48.848;8.924;2023-03-16T05:46:11;97590.06;;;16.47;100.00
8697;BME280;4385;48.848;8.924;2023-03-16T05:48:37;97591.75;;;16.48;100.00
8697;BME280;4385;48.848;8.924;2023-03-16T05:51:04;97586.59;;;16.51;100.00
8697;BME280;4385;48.848;8.924;2023-03-16T05:53:31;97587.47;;;16.51;100.00
8697;BME280;4385;48.848;8.924;2023-03-16T05:55:56;97582.38;;;16.51;100.00
8697;BME280;4385;48.848;8.924;2023-03-16T05:58:21;97577.28;;;16.51;100.00
8697;BME280;4385;48.848;8.924;2023-03-16T06:00:47;97579.84;;;16.51;100.00
8697;BME280;4385;48.848;8.924;2023-03-16T06:03:12;97582.38;;;16.51;100.00
8697;BME280;4385;48.848;8.924;2023-03-16T06:05:37;97578.19;;;16.49;100.00
8697;BME280;4385;48.848;8.924;2023-03-16T06:08:03;97581.56;;;16.48;100.00
8697;BME280;4385;48.848;8.924;2023-03-16T06:10:28;97580.75;;;16.45;100.00
8697;BME280;4385;48.848;8.924;2023-03-16T06:12:53;97580.78;;;16.44;100.00
8697;BME280;4385;48.848;8.924;2023-03-16T06:15:19;97580.81;;;16.41;100.00
8697;BME280;4385;48.848;8.924;2023-03-16T06:17:44;97590.13;;;16.40;100.00
8697;BME280;4385;48.848;8.924;2023-03-16T06:20:11;97581.69;;;16.38;100.00
8697;BME280;4385;48.848;8.924;2023-03-16T06:22:38;97595.25;;;16.37;100.00
8697;BME280;4385;48.848;8.924;2023-03-16T06:25:04;97593.59;;;16.36;100.00
8697;BME280;4385;48.848;8.924;2023-03-16T06:27:30;97594.41;;;16.37;100.00
8697;BME280;4385;48.848;8.924;2023-03-16T06:29:55;97589.31;;;16.38;100.00
8697;BME280;4385;48.848;8.924;2023-03-16T06:32:20;97597.75;;;16.42;100.00
8697;BME280;4385;48.848;8.924;2023-03-16T06:34:46;97597.72;;;16.45;100.00
8697;BME280;4385;48.848;8.924;2023-03-16T06:37:12;97591.72;;;16.49;100.00
8697;BME280;4385;48.848;8.924;2023-03-16T06:39:37;97587.44;;;16.54;100.00
8697;BME280;4385;48.848;8.924;2023-03-16T06:42:03;97583.16;;;16.58;100.00
8697;BME280;4385;48.848;8.924;2023-03-16T06:44:29;97587.31;;;16.64;100.00
8697;BME280;4385;48.848;8.924;2023-03-16T06:46:55;97590.63;;;16.69;100.00
8697;BME280;4385;48.848;8.924;2023-03-16T06:49:20;97587.19;;;16.73;100.00
8697;BME280;4385;48.848;8.924;2023-03-16T06:51:45;97588.81;;;16.77;100.00
8697;BME280;4385;48.848;8.924;2023-03-16T06:54:11;97587.94;;;16.80;100.00
8697;BME280;4385;48.848;8.924;2023-03-16T06:56:36;97591.31;;;16.80;100.00
8697;BME280;4385;48.848;8.924;2023-03-16T06:59:01;97592.09;;;16.86;100.00
8697;BME280;4385;48.848;8.924;2023-03-16T07:01:26;97591.19;;;16.90;100.00
8697;BME280;4385;48.848;8.924;2023-03-16T07:03:52;97592.84;;;16.94;100.00
8697;BME280;4385;48.848;8.924;2023-03-16T07:06:18;97591.06;;;16.98;100.00
8697;BME280;4385;48.848;8.924;2023-03-16T07:08:43;97600.41;;;17.00;100.00
8697;BME280;4385;48.848;8.924;2023-03-16T07:11:09;97601.25;;;16.99;100.00
8697;BME280;4385;48.848;8.924;2023-03-16T07:13:35;97604.63;;;17.00;100.00
8697;BME280;4385;48.848;8.924;2023-03-16T07:16:00;97597.06;;;16.95;100.00
8697;BME280;4385;48.848;8.924;2023-03-16T07:18:26;97599.63;;;16.93;100.00
8697;BME280;4385;48.848;8.924;2023-03-16T07:20:53;97604.78;;;16.89;100.00
8697;BME280;4385;48.848;8.924;2023-03-16T07:23:18;97602.25;;;16.89;100.00
8697;BME280;4385;48.848;8.924;2023-03-16T07:25:43;97593.72;;;16.90;100.00
8697;BME280;4385;48.848;8.924;2023-03-16T07:28:09;97604.75;;;16.92;100.00
8697;BME280;4385;48.848;8.924;2023-03-16T07:30:34;97604.75;;;16.92;100.00
8697;BME280;4385;48.848;8.924;2023-03-16T07:32:59;97606.47;;;16.90;100.00
8697;BME280;4385;48.848;8.924;2023-03-16T07:35:26;97610.72;;;16.91;100.00
8697;BME280;4385;48.848;8.924;2023-03-16T07:37:51;97611.53;;;16.91;100.00
8697;BME280;4385;48.848;8.924;2023-03-16T07:40:16;97607.28;;;16.92;100.00
8697;BME280;4385;48.848;8.924;2023-03-16T07:42:42;97598.78;;;16.93;100.00
8697;BME280;4385;48.848;8.924;2023-03-16T07:45:09;97608.13;;;16.94;100.00
8697;BME280;4385;48.848;8.924;2023-03-16T07:47:35;97608.97;;;16.93;100.00
8697;BME280;4385;48.848;8.924;2023-03-16T07:50:00;97605.59;;;16.92;100.00
8697;BME280;4385;48.848;8.924;2023-03-16T07:52:26;97609.81;;;16.93;100.00
8697;BME280;4385;48.848;8.924;2023-03-16T07:54:52;97608.97;;;16.93;100.00
8697;BME280;4385;48.848;8.924;2023-03-16T07:57:18;97597.09;;;16.92;100.00
8697;BME280;4385;48.848;8.924;2023-03-16T07:59:43;97606.44;;;16.91;100.00
8697;BME280;4385;48.848;8.924;2023-03-16T08:02:11;97607.34;;;16.89;100.00
8697;BME280;4385;48.848;8.924;2023-03-16T08:04:37;97600.59;;;16.86;100.00
8697;BME280;4385;48.848;8.924;2023-03-16T08:07:02;97608.25;;;16.85;100.00
8697;BME280;4385;48.848;8.924;2023-03-16T08:09:27;97607.41;;;16.82;100.00
8697;BME280;4385;48.848;8.924;2023-03-16T08:11:53;97614.19;;;16.82;100.00
8697;BME280;4385;48.848;8.924;2023-03-16T08:14:18;97614.22;;;16.80;100.00
8697;BME280;4385;48.848;8.924;2023-03-16T08:16:44;97612.56;;;16.78;100.00
8697;BME280;4385;48.848;8.924;2023-03-16T08:19:09;97605.81;;;16.75;100.00
8697;BME280;4385;48.848;8.924;2023-03-16T08:21:35;97604.13;;;16.74;100.00
8697;BME280;4385;48.848;8.924;2023-03-16T08:24:01;97599.03;;;16.74;100.00
8697;BME280;4385;48.848;8.924;2023-03-16T08:26:26;97590.59;;;16.72;100.00
8697;BME280;4385;48.848;8.924;2023-03-16T08:28:51;97590.59;;;16.74;100.00
8697;BME280;4385;48.848;8.924;2023-03-16T08:31:18;97586.34;;;16.73;100.00
8697;BME280;4385;48.848;8.924;2023-03-16T08:33:45;97587.19;;;16.73;100.00
8697;BME280;4385;48.848;8.924;2023-03-16T08:36:12;97582.94;;;16.74;100.00
8697;BME280;4385;48.848;8.924;2023-03-16T08:38:39;97582.94;;;16.74;100.00
8697;BME280;4385;48.848;8.924;2023-03-16T08:41:05;97578.69;;;16.74;100.00
8697;BME280;4385;48.848;8.924;2023-03-16T08:43:30;97580.38;;;16.75;100.00
8697;BME280;4385;48.848;8.924;2023-03-16T08:45:56;97571.88;;;16.76;100.00
8697;BME280;4385;48.848;8.924;2023-03-16T08:48:23;97581.19;;;16.77;100.00
8697;BME280;4385;48.848;8.924;2023-03-16T08:50:48;97580.34;;;16.78;100.00
8697;BME280;4385;48.848;8.924;2023-03-16T08:53:13;97585.38;;;16.81;100.00
8697;BME280;4385;48.848;8.924;2023-03-16T08:55:40;97578.53;;;16.83;100.00
8697;BME280;4385;48.848;8.924;2023-03-16T08:58:06;97579.41;;;16.84;100.00
8697;BME280;4385;48.848;8.924;2023-03-16T09:00:32;97587.88;;;16.86;100.00
8697;BME280;4385;48.848;8.924;2023-03-16T09:02:58;97588.69;;;16.87;100.00
8697;BME280;4385;48.848;8.924;2023-03-16T09:05:24;97584.44;;;16.87;100.00
8697;BME280;4385;48.848;8.924;2023-03-16T09:07:50;97573.41;;;16.87;100.00
8697;BME280;4385;48.848;8.924;2023-03-16T09:10:15;97569.16;;;16.89;100.00
8697;BME280;4385;48.848;8.924;2023-03-16T09:12:42;97565.78;;;16.87;100.00
8697;BME280;4385;48.848;8.924;2023-03-16T09:15:09;97563.22;;;16.87;100.00
8697;BME280;4385;48.848;8.924;2023-03-16T09:17:36;97569.16;;;16.89;100.00
8697;BME280;4385;48.848;8.924;2023-03-16T09:20:02;97565.75;;;16.88;100.00
8697;BME280;4385;48.848;8.924;2023-03-16T09:22:29;97571.69;;;16.89;100.00
8697;BME280;4385;48.848;8.924;2023-03-16T09:24:54;97583.56;;;16.90;100.00
8697;BME280;4385;48.848;8.924;2023-03-16T09:27:20;97574.22;;;16.90;100.00
8697;BME280;4385;48.848;8.924;2023-03-16T09:29:46;97566.56;;;16.92;100.00
8697;BME280;4385;48.848;8.924;2023-03-16T09:32:13;97564.84;;;16.94;100.00
8697;BME280;4385;48.848;8.924;2023-03-16T09:34:38;97568.19;;;16.96;100.00
8697;BME280;4385;48.848;8.924;2023-03-16T09:37:04;97559.69;;;16.99;100.00
8697;BME280;4385;48.848;8.924;2023-03-16T09:39:29;97546.09;;;17.00;100.00
8697;BME280;4385;48.848;8.924;2023-03-16T09:42:21;97552.00;;;17.02;100.00
8697;BME280;4385;48.848;8.924;2023-03-16T09:44:58;97546.88;;;17.03;100.00
8697;BME280;4385;48.848;8.924;2023-03-16T09:47:31;97541.78;;;17.05;100.00
8697;BME280;4385;48.848;8.924;2023-03-16T09:49:59;97542.56;;;17.07;100.00
8697;BME280;4385;48.848;8.924;2023-03-16T09:52:34;97541.72;;;17.10;100.00
8697;BME280;4385;48.848;8.924;2023-03-16T09:55:30;97542.56;;;17.08;100.00
8697;BME280;4385;48.848;8.924;2023-03-16T09:57:58;97543.44;;;17.09;100.00
8697;BME280;4385;48.848;8.924;2023-03-16T10:00:30;97532.41;;;17.08;100.00
8697;BME280;4385;48.848;8.924;2023-03-16T10:05:51;97544.28;;;17.06;100.00
8697;BME280;4385;48.848;8.924;2023-03-16T10:08:32;97547.69;;;17.05;100.00
8697;BME280;4385;48.848;8.924;2023-03-16T10:11:14;97556.19;;;17.04;100.00
8697;BME280;4385;48.848;8.924;2023-03-16T10:16:32;97535.88;;;17.01;100.00
8697;BME280;4385;48.848;8.924;2023-03-16T10:19:13;97537.56;;;17.01;100.00
8697;BME280;4385;48.848;8.924;2023-03-16T10:21:41;97550.31;;;17.01;100.00
8697;BME280;4385;48.848;8.924;2023-03-16T10:26:56;97535.03;;;17.01;100.00
8697;BME280;4385;48.848;8.924;2023-03-16T10:29:28;97524.81;;;17.02;100.00
8697;BME280;4385;48.848;8.924;2023-03-16T10:32:11;97526.47;;;17.06;100.00
8697;BME280;4385;48.848;8.924;2023-03-16T10:34:36;97517.97;;;17.06;100.00
8697;BME280;4385;48.848;8.924;2023-03-16T10:37:03;97512.88;;;17.09;100.00
8697;BME280;4385;48.848;8.924;2023-03-16T10:39:35;97506.94;;;17.08;100.00
8697;BME280;4385;48.848;8.924;2023-03-16T10:42:01;97505.22;;;17.11;100.00
8697;BME280;4385;48.848;8.924;2023-03-16T10:44:27;97505.16;;;17.14;100.00
8697;BME280;4385;48.848;8.924;2023-03-16T10:47:05;97506.00;;;17.16;100.00
8697;BME280;4385;48.848;8.924;2023-03-16T10:49:39;97506.78;;;17.18;100.00
8697;BME280;4385;48.848;8.924;2023-03-16T10:52:32;97505.94;;;17.19;100.00
8697;BME280;4385;48.848;8.924;2023-03-16T10:55:09;97503.38;;;17.20;100.00
8697;BME280;4385;48.848;8.924;2023-03-16T10:57:40;97499.06;;;17.23;100.00
8697;BME280;4385;48.848;8.924;2023-03-16T11:00:14;97490.59;;;17.22;100.00
8697;BME280;4385;48.848;8.924;2023-03-16T11:02:40;97501.59;;;17.23;100.00
8697;BME280;4385;48.848;8.924;2023-03-16T11:07:49;97498.25;;;17.22;100.00
8697;BME280;4385;48.848;8.924;2023-03-16T11:10:27;97496.53;;;17.21;100.00
8697;BME280;4385;48.848;8.924;2023-03-16T11:12:53;97493.19;;;17.19;100.00
8697;BME280;4385;48.848;8.924;2023-03-16T11:15:19;97490.66;;;17.19;100.00
8697;BME280;4385;48.848;8.924;2023-03-16T11:17:48;97495.78;;;17.17;100.00
8697;BME280;4385;48.848;8.924;2023-03-16T11:20:26;97488.13;;;17.17;100.00
8697;BME280;4385;48.848;8.924;2023-03-16T11:22:52;97494.03;;;17.19;100.00
8697;BME280;4385;48.848;8.924;2023-03-16T11:30:48;97482.91;;;17.25;100.00
8697;BME280;4385;48.848;8.924;2023-03-16T11:33:19;97487.94;;;17.28;100.00
8697;BME280;4385;48.848;8.924;2023-03-16T11:38:36;97474.28;;;17.32;100.00
8697;BME280;4385;48.848;8.924;2023-03-16T11:41:10;97471.69;;;17.36;100.00
8697;BME280;4385;48.848;8.924;2023-03-16T11:43:54;97467.41;;;17.38;100.00
8697;BME280;4385;48.848;8.924;2023-03-16T11:46:39;97453.81;;;17.39;100.00
8697;BME280;4385;48.848;8.924;2023-03-16T11:49:30;97449.53;;;17.41;100.00
8697;BME280;4385;48.848;8.924;2023-03-16T11:52:10;97434.97;;;17.46;100.00
8697;BME280;4385;48.848;8.924;2023-03-16T11:54:43;97429.88;;;17.46;100.00
8697;BME280;4385;48.848;8.924;2023-03-16T12:00:21;97428.28;;;17.42;100.00
8697;BME280;4385;48.848;8.924;2023-03-16T12:03:18;97432.53;;;17.40;100.00
8697;BME280;4385;48.848;8.924;2023-03-16T12:11:42;97436.91;;;17.35;100.00
8697;BME280;4385;48.848;8.924;2023-03-16T12:14:19;97441.19;;;17.32;100.00
8697;BME280;4385;48.848;8.924;2023-03-16T12:17:19;97444.59;;;17.31;100.00
8697;BME280;4385;48.848;8.924;2023-03-16T12:19:44;97425.09;;;17.29;100.00
8697;BME280;4385;48.848;8.924;2023-03-16T12:22:20;97426.81;;;17.28;100.00
8697;BME280;4385;48.848;8.924;2023-03-16T12:24:46;97423.44;;;17.28;100.00
8697;BME280;4385;48.848;8.924;2023-03-16T12:27:19;97416.66;;;17.28;100.00
8697;BME280;4385;48.848;8.924;2023-03-16T12:30:05;97414.88;;;17.30;100.00
8697;BME280;4385;48.848;8.924;2023-03-16T12:33:07;97404.63;;;17.33;100.00
8697;BME280;4385;48.848;8.924;2023-03-16T12:35:49;97412.25;;;17.35;100.00
8697;BME280;4385;48.848;8.924;2023-03-16T12:43:49;97398.56;;;17.42;100.00
8697;BME280;4385;48.848;8.924;2023-03-16T12:46:30;97397.66;;;17.45;100.00
8697;BME280;4385;48.848;8.924;2023-03-16T12:49:01;97389.97;;;17.47;100.00
8697;BME280;4385;48.848;8.924;2023-03-16T12:51:38;97392.50;;;17.48;100.00
8697;BME280;4385;48.848;8.924;2023-03-16T12:54:04;97391.56;;;17.51;100.00
8697;BME280;4385;48.848;8.924;2023-03-16T12:56:35;97392.44;;;17.51;100.00
8697;BME280;4385;48.848;8.924;2023-03-16T12:59:15;97395.84;;;17.50;100.00
8697;BME280;4385;48.848;8.924;2023-03-16T13:01:43;97394.09;;;17.52;100.00
8697;BME280;4385;48.848;8.924;2023-03-16T13:04:15;97382.22;;;17.51;100.00
8697;BME280;4385;48.848;8.924;2023-03-16T13:07:00;97389.88;;;17.51;100.00
8697;BME280;4385;48.848;8.924;2023-03-16T13:09:27;97390.78;;;17.49;100.00
8697;BME280;4385;48.848;8.924;2023-03-16T13:11:56;97386.50;;;17.49;100.00
8697;BME280;4385;48.848;8.924;2023-03-16T13:14:47;97383.13;;;17.50;100.00
8697;BME280;4385;48.848;8.924;2023-03-16T13:19:45;97376.38;;;17.46;100.00
8697;BME280;4385;48.848;8.924;2023-03-16T13:27:38;97371.34;;;17.43;100.00
8697;BME280;4385;48.848;8.924;2023-03-16T13:30:16;97370.50;;;17.44;100.00
8697;BME280;4385;48.848;8.924;2023-03-16T13:32:42;97371.28;;;17.46;100.00
8697;BME280;4385;48.848;8.924;2023-03-16T13:35:12;97369.56;;;17.48;100.00
8697;BME280;4385;48.848;8.924;2023-03-16T13:37:41;97360.19;;;17.50;100.00
8697;BME280;4385;48.848;8.924;2023-03-16T13:40:21;97365.19;;;17.55;100.00
8697;BME280;4385;48.848;8.924;2023-03-16T13:42:48;97359.19;;;17.57;100.00
8697;BME280;4385;48.848;8.924;2023-03-16T13:45:19;97354.03;;;17.61;100.00
8697;BME280;4385;48.848;8.924;2023-03-16T13:47:47;97349.75;;;17.63;100.00
8697;BME280;4385;48.848;8.924;2023-03-16T13:50:13;97355.63;;;17.65;100.00
8697;BME280;4385;48.848;8.924;2023-03-16T13:52:39;97356.38;;;17.70;100.00
8697;BME280;4385;48.848;8.924;2023-03-16T13:55:16;97356.31;;;17.73;100.00
8697;BME280;4385;48.848;8.924;2023-03-16T13:57:43;97346.13;;;17.73;100.00